Flight Track Log - Related Links

Times and Time Zones

All times are in EDT time to prevent confusion due to time zone crossing. See the EJA387 flight status page for this flight to view local times or setup timezone preferences in your user account.

Time Position Orientation Groundspeed Altitude Reporting Facility
EDT Latitude Longitude Course Direction KTS MPH feet Rate Location/Type
Sun 05:53:56 PM 43.5675 -110.7619 201° Southwest 209 241 8,500  Level Salt Lake Center
Sun 05:54:58 PM 43.5025 -110.7958 201° Southwest 214 246 13,400 3,726 Climbing Salt Lake Center
Sun 05:56:00 PM 43.4586 -110.7256 131° Southeast 269 310 16,200 2,177 Climbing Salt Lake Center
Sun 05:57:02 PM 43.4131 -110.6164 120° Southeast 330 380 17,900 2,677 Climbing Salt Lake Center
Sun 05:59:06 PM 43.3094 -110.3506 118° Southeast 373 429 24,500 2,782 Climbing Salt Lake Center
Sun 06:01:10 PM 43.2036 -110.0828 118° Southeast 396 456 29,400 2,202 Climbing Salt Lake Center
Sun 06:03:14 PM 43.0875 -109.7975 119° Southeast 411 473 33,600 1,903 Climbing Salt Lake Center
Sun 06:04:16 PM 43.0331 -109.6614 119° Southeast 411 473 35,300 1,645 Climbing Salt Lake Center
Sun 06:05:18 PM 42.9717 -109.5064 118° Southeast 415 478 37,000 1,500 Climbing Salt Lake Center
Sun 06:06:20 PM 42.9181 -109.3753 119° Southeast 417 480 38,400 1,290 Climbing Salt Lake Center
Sun 06:08:24 PM 42.8014 -109.0878 119° Southeast 416 479 41,000 834 Climbing Salt Lake Center
Sun 06:09:27 PM 42.7458 -108.9536 119° Southeast 419 482 41,000  Level Salt Lake Center
Sun 06:10:28 PM 42.6767 -108.7858 119° Southeast 446 513 41,000  Level Salt Lake Center
Sun 06:11:30 PM 42.6181 -108.6433 119° Southeast 448 516 41,000  Level Salt Lake Center
Sun 06:12:32 PM 42.5497 -108.4814 120° Southeast 447 514 41,000  Level Salt Lake Center
Sun 06:14:22 PM 42.4444 -108.2306 120° Southeast 437 503 41,000  Level Denver Center
Sun 06:15:38 PM 42.3694 -108.0522 120° Southeast 428 493 41,000  Level Salt Lake Center
Sun 06:16:40 PM 42.3011 -107.8939 120° Southeast 430 495 41,000  Level Salt Lake Center
Sun 06:18:30 PM 42.1947 -107.6464 120° Southeast 432 497 41,000  Level Denver Center
Sun 06:19:46 PM 42.1169 -107.4664 120° Southeast 433 498 41,000  Level Salt Lake Center
Sun 06:21:36 PM 42.0100 -107.2211 120° Southeast 434 499 41,000  Level Denver Center
Sun 06:23:40 PM 41.8836 -106.9342 121° Southeast 431 496 41,000  Level Denver Center
Sun 06:24:42 PM 41.8147 -106.7781 121° Southeast 432 497 41,000  Level Denver Center
Sun 06:25:44 PM 41.7561 -106.6472 121° Southeast 431 496 41,000  Level Denver Center
Sun 06:27:48 PM 41.6286 -106.3628 121° Southeast 435 501 41,000  Level Denver Center
Sun 06:28:50 PM 41.5581 -106.2061 121° Southeast 439 505 41,000  Level Denver Center
Sun 06:29:52 PM 41.4975 -106.0722 121° Southeast 440 506 41,000  Level Denver Center
Sun 06:30:54 PM 41.4247 -105.9136 121° Southeast 446 513 41,000  Level Denver Center
Sun 06:31:56 PM 41.3628 -105.7786 121° Southeast 447 514 41,000  Level Denver Center
Sun 06:32:58 PM 41.2906 -105.6200 121° Southeast 451 519 41,000  Level Denver Center
Sun 06:34:00 PM 41.2281 -105.4817 121° Southeast 453 521 41,000  Level Denver Center
Sun 06:35:02 PM 41.1542 -105.3189 121° Southeast 460 529 41,000  Level Denver Center
Sun 06:36:05 PM 41.0897 -105.1822 122° Southeast 461 531 41,000  Level Denver Center
Sun 06:37:07 PM 41.0150 -105.0183 121° Southeast 462 532 41,000  Level Denver Center
Sun 06:38:09 PM 40.9453 -104.8661 121° Southeast 464 534 41,000  Level Denver Center
Sun 06:39:11 PM 40.8761 -104.7192 122° Southeast 469 540 41,000  Level Denver Center
Sun 06:40:13 PM 40.8064 -104.5717 122° Southeast 470 541 41,000  Level Denver Center
Sun 06:41:15 PM 40.7369 -104.4242 122° Southeast 472 543 41,000  Level Denver Center
Sun 06:42:17 PM 40.6669 -104.2769 122° Southeast 474 545 41,000  Level Denver Center
Sun 06:43:19 PM 40.5969 -104.1275 122° Southeast 476 548 41,000  Level Denver Center
Sun 06:44:21 PM 40.5119 -103.9522 122° Southeast 476 548 41,000  Level Denver Center
Sun 06:45:23 PM 40.4422 -103.8056 122° Southeast 475 547 41,000  Level Denver Center
Sun 06:47:27 PM 40.2989 -103.5119 124° Southeast 476 548 41,000  Level Denver Center
Sun 06:48:29 PM 40.2269 -103.3644 123° Southeast 478 550 41,000  Level Denver Center
Sun 06:49:32 PM 40.1556 -103.2183 123° Southeast 479 551 41,000  Level Denver Center
Sun 06:50:34 PM 40.0683 -103.0422 123° Southeast 479 551 41,000  Level Denver Center
Sun 06:51:36 PM 39.9953 -102.8950 123° Southeast 481 554 41,000  Level Denver Center
Sun 06:53:11 PM 39.8869 -102.6781 123° Southeast 482 555 41,000  Level Kansas City Center
Sun 06:54:15 PM 39.8053 -102.5167 123° Southeast 481 554 41,000  Level Kansas City Center
Sun 06:55:44 PM 39.7003 -102.3056 123° Southeast 480 552 41,000  Level Denver Center
Sun 06:56:46 PM 39.6189 -102.1442 123° Southeast 480 552 41,000  Level Denver Center
Sun 06:57:48 PM 39.5481 -102.0058 124° Southeast 480 552 41,000  Level Denver Center
Sun 06:58:50 PM 39.4661 -101.8458 124° Southeast 480 552 41,000  Level Denver Center
Sun 07:00:25 PM 39.3558 -101.6133 121° Southeast 480 552 41,000  Level Kansas City Center
Sun 07:01:29 PM 39.3008 -101.4633 115° Southeast 480 552 41,000  Level Kansas City Center
Sun 07:02:31 PM 39.2361 -101.2900 116° Southeast 480 552 41,000  Level Kansas City Center
Sun 07:03:32 PM 39.1794 -101.1422 116° Southeast 480 552 41,000  Level Kansas City Center
Sun 07:04:35 PM 39.1233 -100.9956 116° Southeast 479 551 41,000  Level Kansas City Center
Sun 07:05:36 PM 39.0575 -100.8217 116° Southeast 480 552 41,000  Level Kansas City Center
Sun 07:06:38 PM 39.0008 -100.6747 116° Southeast 480 552 41,000  Level Kansas City Center
Sun 07:07:42 PM 38.9347 -100.5031 116° Southeast 480 552 41,000  Level Kansas City Center
Sun 07:08:43 PM 38.8761 -100.3550 117° Southeast 481 554 41,000  Level Kansas City Center
Sun 07:09:46 PM 38.8100 -100.1847 116° Southeast 481 554 41,000  Level Kansas City Center
Sun 07:10:48 PM 38.7517 -100.0389 117° Southeast 480 552 41,000 -48 Level Kansas City Center
Sun 07:11:51 PM 38.6844 -99.8694 117° Southeast 480 552 40,900 -968 Descending Kansas City Center
Sun 07:12:52 PM 38.6242 -99.7192 117° Southeast 489 563 39,000 -1,935 Descending Kansas City Center
Sun 07:15:59 PM 38.4289 -99.2344 117° Southeast 496 571 32,900 -2,096 Descending Kansas City Center
Sun 07:17:01 PM 38.3689 -99.0861 117° Southeast 478 550 30,300 -2,754 Descending Kansas City Center
Sun 07:18:01 PM 38.3100 -98.9414 117° Southeast 467 537 27,300 -3,242 Descending Kansas City Center
Sun 07:19:05 PM 38.2425 -98.7728 117° Southeast 454 522 23,600 -3,168 Descending Kansas City Center
Sun 07:20:06 PM 38.1883 -98.6394 117° Southeast 430 495 20,700 -2,516 Descending Kansas City Center
Sun 07:21:09 PM 38.1350 -98.5139 118° Southeast 410 472 18,400 -2,365 Descending Kansas City Center
Sun 07:21:50 PM 38.0986 -98.4222 117° Southeast 387 445 16,600 -2,226 Descending Kansas City Center
Sun 07:22:11 PM 38.0864 -98.3942 119° Southeast 388 447 16,100 -2,300 Descending Kansas City Center
Sun 07:22:50 PM 38.0486 -98.3097 120° Southeast 366 421 14,300 -2,280 Descending Kansas City Center
Sun 07:23:51 PM 38.0089 -98.1961 114° Southeast 347 399 12,300 -1,976 Descending Kansas City Center
Sun 07:24:15 PM 37.9928 -98.1464 112° Southeast 352 405 11,500 -1,855 Descending Kansas City Center
Sun 07:24:46 PM 37.9769 -98.0972 112° Southeast 327 376 10,600 -1,869 Descending Kansas City Center
Sun 07:25:16 PM 37.9597 -98.0458 113° Southeast 323 372 9,600 -1,869 Descending Kansas City Center
Sun 07:25:47 PM 37.9450 -98.0011 113° Southeast 293 337 8,700 -1,548 Descending Kansas City Center
Sun 07:26:18 PM 37.9289 -97.9511 112° Southeast 300 345 8,000 -1,241 Descending Kansas City Center
Sun 07:26:45 PM 37.9128 -97.9025 113° Southeast 297 342 7,500 -1,125 Descending Kansas City Center
Sun 07:27:22 PM 37.8933 -97.8431 112° Southeast 299 344 6,800 -1,254 Descending Kansas City Center
Sun 07:27:52 PM 37.8750 -97.7917 114° Southeast 296 341 6,100 -1,377 Descending Kansas City Center
Sun 07:28:23 PM 37.8622 -97.7478 110° East 298 343 5,400 -1,527 Descending Kansas City Center
Sun 07:28:47 PM 37.8481 -97.7056 113° Southeast 286 329 4,700 -1,180 Descending Kansas City Center
Sun 07:29:24 PM 37.8336 -97.6611 112° Southeast 284 327 4,200 -653 Descending Kansas City Center
Sun 07:30:28 PM 37.8078 -97.5831 113° Southeast 261 300 3,600 -424 Descending Kansas City Center
Sun 07:30:49 PM 37.7953 -97.5494 115° Southeast 227 261 3,600 -100 Level Kansas City Center
Sun 07:31:28 PM 37.7828 -97.5092 111° Southeast 243 280 3,500  Descending Kansas City Center
Sun 07:31:49 PM 37.7711 -97.4739 113° Southeast 229 264 3,600 94 Climbing Kansas City Center
Sun 07:32:32 PM 37.7592 -97.4372 112° Southeast 232 267 3,600 -194 Level Kansas City Center
Sun 07:32:51 PM 37.7478 -97.4086 117° Southeast 188 216 3,400 -871 Descending Kansas City Center
Sun 07:33:34 PM 37.7250 -97.3958 156° South 174 200 2,700 -828 Descending Kansas City Center
Sun 07:33:49 PM 37.7156 -97.4003 200° South 110 127 2,600 -689 Descending Kansas City Center
Sun 07:34:35 PM 37.6931 -97.4031 186° South 137 158 2,000 -495 Descending Kansas City Center
Sun 07:35:38 PM 37.6644 -97.4139 197° South 127 146 1,700 -286 Descending Kansas City Center
Sun 07:37:00 PM 37.6499 -97.4331 142° Southeast  Level Estimated
Sun 07:44:00 PM 37.6499 -97.4331 142° Southeast  Level Estimated
Sun 07:45:00 PM 37.6499 -97.4331 142° Southeast  Level Estimated
Sun 07:46:00 PM 37.6499 -97.4331 142° Southeast  Level Estimated
Sun 07:47:00 PM 37.6499 -97.4331 142° Southeast  Level Estimated
Sun 07:48:00 PM 37.6499 -97.4331 142° Southeast  Level Estimated
Sun 07:49:00 PM 37.6499 -97.4331 142° Southeast  Level Estimated
Sun 07:50:00 PM 37.6499 -97.4331 142° Southeast  Level Estimated
Sun 07:51:00 PM 37.6499 -97.4331 142° Southeast  Level Estimated
Sun 07:52:00 PM 37.6499 -97.4331 142° Southeast  Level Estimated

Login

Don't have an account? Register now (free) for customized features, flight alerts, and more!